sensor_id;sensor_type;location;lat;lon;timestamp;pressure;altitude;pressure_sealevel;temperature;humidity
61740;BME280;47645;45.288;12.038;2024-02-04T00:01:48;1023.8291012575297;;;3.8423828125;100
61740;BME280;47645;45.288;12.038;2024-02-04T00:11:49;1023.7091348549814;;;3.78125;100
61740;BME280;47645;45.288;12.038;2024-02-04T00:21:49;1023.5678145038571;;;4.1736328125;100
61740;BME280;47645;45.288;12.038;2024-02-04T00:31:50;1023.6946225525585;;;3.9646484375;100
61740;BME280;47645;45.288;12.038;2024-02-04T00:41:50;1023.7763420497705;;;3.9544921875;100
61740;BME280;47645;45.288;12.038;2024-02-04T00:51:50;1023.5732952379205;;;4.0513671875;100
61740;BME280;47645;45.288;12.038;2024-02-04T01:01:51;1023.5674221813393;;;4.087109375;100
61740;BME280;47645;45.288;12.038;2024-02-04T01:11:53;1023.6419389262905;;;3.8322265625;100
61740;BME280;47645;45.288;12.038;2024-02-04T01:21:52;1023.6800609444892;;;3.7048828125;100
61740;BME280;47645;45.288;12.038;2024-02-04T01:31:52;1023.7034214483247;;;3.5212890625;100
61740;BME280;47645;45.288;12.038;2024-02-04T01:41:53;1023.6966611050997;;;3.6232421875;100
61740;BME280;47645;45.288;12.038;2024-02-04T01:51:53;1023.5052981954308;;;3.7455078125;100
61740;BME280;47645;45.288;12.038;2024-02-04T02:01:54;1023.5420395757559;;;3.7404296875;100
61740;BME280;47645;45.288;12.038;2024-02-04T02:11:59;1023.2371808479584;;;3.6640625;100
61740;BME280;47645;45.288;12.038;2024-02-04T02:22:02;1023.2519872944783;;;3.5060546875;100
61740;BME280;47645;45.288;12.038;2024-02-04T02:31:55;1023.6657460112833;;;3.36328125;100
61740;BME280;47645;45.288;12.038;2024-02-04T02:41:59;1023.5588321500337;;;3.475390625;100
61740;BME280;47645;45.288;12.038;2024-02-04T02:51:56;1023.5475875828098;;;3.6283203125;100
61740;BME280;47645;45.288;12.038;2024-02-04T03:01:57;1023.6252177271548;;;3.551953125;100
61740;BME280;47645;45.288;12.038;2024-02-04T03:11:57;1023.4794735405475;;;3.43984375;100
61740;BME280;47645;45.288;12.038;2024-02-04T03:21:57;1023.0718472327526;;;3.220703125;100
61740;BME280;47645;45.288;12.038;2024-02-04T03:31:58;1023.3176201716694;;;3.1494140625;100
61740;BME280;47645;45.288;12.038;2024-02-04T03:41:58;1023.0239181016831;;;3.1748046875;100
61740;BME280;47645;45.288;12.038;2024-02-04T03:51:59;1022.8904032015956;;;3.0576171875;100
61740;BME280;47645;45.288;12.038;2024-02-04T04:01:59;1022.9144765233407;;;2.705859375;100
61740;BME280;47645;45.288;12.038;2024-02-04T04:12:00;1022.9981572626152;;;2.70078125;100
61740;BME280;47645;45.288;12.038;2024-02-04T04:22:02;1022.7311306144439;;;2.66015625;100
61740;BME280;47645;45.288;12.038;2024-02-04T04:32:01;1023.1022590010947;;;2.13515625;100
61740;BME280;47645;45.288;12.038;2024-02-04T04:42:01;1023.3179061092317;;;1.778515625;100
61740;BME280;47645;45.288;12.038;2024-02-04T04:52:02;1023.2960560734444;;;2.221875;100
61740;BME280;47645;45.288;12.038;2024-02-04T05:02:02;1023.3391998576699;;;2.441015625;100
61740;BME280;47645;45.288;12.038;2024-02-04T05:12:03;1023.4996604098851;;;2.5224609375;100
61740;BME280;47645;45.288;12.038;2024-02-04T05:22:03;1023.3120902985282;;;2.5326171875;100
61740;BME280;47645;45.288;12.038;2024-02-04T05:32:04;1023.6424528661925;;;1.808984375;100
61740;BME280;47645;45.288;12.038;2024-02-04T05:42:04;1023.7006484127203;;;1.8294921875;100
61740;BME280;47645;45.288;12.038;2024-02-04T05:52:05;1023.783373657534;;;1.99765625;100
61740;BME280;47645;45.288;12.038;2024-02-04T06:02:05;1023.7426761584113;;;2.221875;100
61740;BME280;47645;45.288;12.038;2024-02-04T06:12:07;1023.7111388358202;;;2.359375;100
61740;BME280;47645;45.288;12.038;2024-02-04T06:22:05;1023.9498621150692;;;2.3134765625;100
61740;BME280;47645;45.288;12.038;2024-02-04T06:32:06;1024.1358749930043;;;2.226953125;100
61740;BME280;47645;45.288;12.038;2024-02-04T06:42:06;1024.4180035240731;;;1.9771484375;100
61740;BME280;47645;45.288;12.038;2024-02-04T06:52:07;1024.3735129648392;;;2.1607421875;100
61740;BME280;47645;45.288;12.038;2024-02-04T07:02:07;1024.3617850229434;;;2.247265625;100
61740;BME280;47645;45.288;12.038;2024-02-04T07:12:07;1024.4120243565185;;;2.1962890625;100
61740;BME280;47645;45.288;12.038;2024-02-04T07:22:07;1024.4916496489595;;;2.267578125;100
61740;BME280;47645;45.288;12.038;2024-02-04T07:32:08;1024.5045308091505;;;2.344140625;100
61740;BME280;47645;45.288;12.038;2024-02-04T07:42:08;1024.6373915817605;;;2.471484375;100
61740;BME280;47645;45.288;12.038;2024-02-04T07:52:08;1024.541328842201;;;2.66015625;100
61740;BME280;47645;45.288;12.038;2024-02-04T08:02:09;1024.422128476962;;;2.8384765625;100
61740;BME280;47645;45.288;12.038;2024-02-04T08:12:10;1024.2959155513781;;;3.251171875;100
61740;BME280;47645;45.288;12.038;2024-02-04T08:22:09;1024.3278361652392;;;3.684375;100
61740;BME280;47645;45.288;12.038;2024-02-04T08:32:10;1024.536739426026;;;3.5927734375;100
61740;BME280;47645;45.288;12.038;2024-02-04T08:42:10;1024.6454295855738;;;4.087109375;100
61740;BME280;47645;45.288;12.038;2024-02-04T08:52:10;1024.955016749408;;;4.3673828125;100
61740;BME280;47645;45.288;12.038;2024-02-04T09:02:11;1024.9623412721267;;;5.1673828125;100
61740;BME280;47645;45.288;12.038;2024-02-04T09:12:11;1024.9744157647185;;;5.40703125;100
61740;BME280;47645;45.288;12.038;2024-02-04T09:22:12;1024.8870003397378;;;5.850390625;100
61740;BME280;47645;45.288;12.038;2024-02-04T09:32:12;1024.9314548464642;;;6.2478515625;100
61740;BME280;47645;45.288;12.038;2024-02-04T09:42:19;1025.0689266801385;;;6.4822265625;100
61740;BME280;47645;45.288;12.038;2024-02-04T09:52:16;1025.1941555755711;;;7.2671875;100
61740;BME280;47645;45.288;12.038;2024-02-04T10:02:15;1024.8388600492963;;;8.2048828125;100
61740;BME280;47645;45.288;12.038;2024-02-04T10:12:14;1024.810913647123;;;8.8166015625;100
61740;BME280;47645;45.288;12.038;2024-02-04T10:22:17;1024.7237949210933;;;9.5095703125;100
61740;BME280;47645;45.288;12.038;2024-02-04T10:32:15;1024.5821603122938;;;10.202734375;100
61740;BME280;47645;45.288;12.038;2024-02-04T10:42:17;1024.5451043604173;;;10.95703125;99.9144555383899
61740;BME280;47645;45.288;12.038;2024-02-04T10:52:17;1024.4947018203345;;;11.46171875;91.29998031043968
61740;BME280;47645;45.288;12.038;2024-02-04T11:02:19;1024.3750929980201;;;12.2873046875;86.87141881983987
61740;BME280;47645;45.288;12.038;2024-02-04T11:12:19;1024.3379304058603;;;12.9041015625;84.09889535574861
61740;BME280;47645;45.288;12.038;2024-02-04T11:22:33;1024.2437323768784;;;13.811328125;76.31126816825848
61740;BME280;47645;45.288;12.038;2024-02-04T11:32:19;1024.0553124858893;;;13.801171875;78.62665276510947
61740;BME280;47645;45.288;12.038;2024-02-04T11:42:22;1023.9681317637825;;;13.7806640625;77.55149975311045
61740;BME280;47645;45.288;12.038;2024-02-04T11:52:20;1023.8824631578168;;;13.69921875;77.27113985636014
61740;BME280;47645;45.288;12.038;2024-02-04T12:02:21;1023.9148790436815;;;13.744921875;77.10221661090162
61740;BME280;47645;45.288;12.038;2024-02-04T12:12:22;1023.7945503634776;;;13.821484375;78.6299048212752
61740;BME280;47645;45.288;12.038;2024-02-04T12:22:23;1023.7522434553171;;;13.6787109375;75.0207232073531
61740;BME280;47645;45.288;12.038;2024-02-04T12:32:24;1023.6103421236637;;;13.5615234375;76.87231972316634
61740;BME280;47645;45.288;12.038;2024-02-04T12:42:24;1023.3980947545242;;;13.4291015625;79.19706179829895
61740;BME280;47645;45.288;12.038;2024-02-04T12:52:25;1023.4267210056773;;;13.8265625;76.11156316310019
61740;BME280;47645;45.288;12.038;2024-02-04T13:02:25;1023.284065487132;;;13.6482421875;78.4734430132475
61740;BME280;47645;45.288;12.038;2024-02-04T13:12:26;1023.2029957173775;;;13.1130859375;76.81218081152382
61740;BME280;47645;45.288;12.038;2024-02-04T13:22:27;1023.0431733581149;;;13.2455078125;76.1414971218626
61740;BME280;47645;45.288;12.038;2024-02-04T13:32:28;1023.1748616202269;;;13.1486328125;76.97595973014448
61740;BME280;47645;45.288;12.038;2024-02-04T13:42:29;1023.0427871626193;;;13.1384765625;80.54271553591742
61740;BME280;47645;45.288;12.038;2024-02-04T13:52:29;1022.9101149707228;;;12.9345703125;89.38475446030638
61740;BME280;47645;45.288;12.038;2024-02-04T14:02:30;1022.6584452054108;;;13.0263671875;89.4738767633196
61740;BME280;47645;45.288;12.038;2024-02-04T14:12:32;1022.6658660467449;;;12.888671875;91.45406662603604
61740;BME280;47645;45.288;12.038;2024-02-04T14:22:31;1022.6542134423543;;;12.771484375;92.79624095092757
61740;BME280;47645;45.288;12.038;2024-02-04T14:32:32;1022.7131856390132;;;12.526953125;92.77086650010165
61740;BME280;47645;45.288;12.038;2024-02-04T14:42:33;1022.5781192650653;;;12.2669921875;93.02782452997157
61740;BME280;47645;45.288;12.038;2024-02-04T14:52:33;1022.6159769869055;;;11.93046875;90.67383508025638
61740;BME280;47645;45.288;12.038;2024-02-04T15:02:34;1022.4945300927426;;;11.5177734375;91.05062651964043
61740;BME280;47645;45.288;12.038;2024-02-04T15:12:35;1022.5022807971482;;;11.3953125;90.13818634996434
61740;BME280;47645;45.288;12.038;2024-02-04T15:22:35;1022.7353050955094;;;11.140625;90.80511663438084
61740;BME280;47645;45.288;12.038;2024-02-04T15:32:37;1022.6652230101862;;;10.748046875;95.08145265993488
61740;BME280;47645;45.288;12.038;2024-02-04T15:42:36;1022.7941029386806;;;10.309765625;97.36315598298641
61740;BME280;47645;45.288;12.038;2024-02-04T15:52:37;1022.952992813315;;;10.0091796875;100
61740;BME280;47645;45.288;12.038;2024-02-04T16:02:38;1022.7590888979603;;;9.5453125;100
61740;BME280;47645;45.288;12.038;2024-02-04T16:12:40;1022.8943146758505;;;9.198828125;100
61740;BME280;47645;45.288;12.038;2024-02-04T16:22:39;1022.6638701065051;;;8.8267578125;100
61740;BME280;47645;45.288;12.038;2024-02-04T16:32:40;1022.77918132883;;;8.5310546875;100
61740;BME280;47645;45.288;12.038;2024-02-04T16:42:40;1022.9615124480085;;;8.235546875;100
61740;BME280;47645;45.288;12.038;2024-02-04T16:52:41;1022.9896512260034;;;8.148828125;100
61740;BME280;47645;45.288;12.038;2024-02-04T17:02:42;1022.9803743869753;;;8.0265625;100
61740;BME280;47645;45.288;12.038;2024-02-04T17:12:43;1022.9035194385126;;;7.89921875;100
61740;BME280;47645;45.288;12.038;2024-02-04T17:22:44;1023.0034272495311;;;7.578125;100
61740;BME280;47645;45.288;12.038;2024-02-04T17:32:45;1023.097867722303;;;7.4046875;100
61740;BME280;47645;45.288;12.038;2024-02-04T17:42:45;1023.1735303413631;;;7.272265625;100
61740;BME280;47645;45.288;12.038;2024-02-04T17:52:44;1023.0353534587719;;;7.2060546875;100
61740;BME280;47645;45.288;12.038;2024-02-04T18:02:45;1023.019825344087;;;7.1091796875;100
61740;BME280;47645;45.288;12.038;2024-02-04T18:12:45;1023.0335935150404;;;6.9103515625;100
61740;BME280;47645;45.288;12.038;2024-02-04T18:22:46;1023.0003743597649;;;6.8697265625;100
61740;BME280;47645;45.288;12.038;2024-02-04T18:32:47;1022.8888740620816;;;6.5384765625;100
61740;BME280;47645;45.288;12.038;2024-02-04T18:42:47;1023.0900342882652;;;6.3498046875;100
61740;BME280;47645;45.288;12.038;2024-02-04T18:52:48;1023.1350649885393;;;6.278515625;100
61740;BME280;47645;45.288;12.038;2024-02-04T19:02:48;1023.19615098065;;;6.1306640625;100
61740;BME280;47645;45.288;12.038;2024-02-04T19:12:49;1023.4195103731759;;;6.1306640625;100
61740;BME280;47645;45.288;12.038;2024-02-04T19:22:49;1023.3021925866736;;;5.8197265625;100
61740;BME280;47645;45.288;12.038;2024-02-04T19:32:51;1023.2652853965861;;;5.508984375;100
61740;BME280;47645;45.288;12.038;2024-02-04T19:42:51;1023.4367116209636;;;5.8095703125;100
61740;BME280;47645;45.288;12.038;2024-02-04T19:52:51;1023.4663353496535;;;5.646484375;100
61740;BME280;47645;45.288;12.038;2024-02-04T20:02:52;1023.4671075295837;;;5.6515625;100
61740;BME280;47645;45.288;12.038;2024-02-04T20:12:52;1023.4956058527744;;;5.3509765625;100
61740;BME280;47645;45.288;12.038;2024-02-04T20:22:55;1023.4854729240288;;;5.4580078125;100
61740;BME280;47645;45.288;12.038;2024-02-04T20:32:53;1023.4322143790902;;;5.4580078125;100
61740;BME280;47645;45.288;12.038;2024-02-04T20:42:54;1023.4478838620473;;;4.983984375;100
61740;BME280;47645;45.288;12.038;2024-02-04T20:52:55;1023.4362225212271;;;5.228515625;100
61740;BME280;47645;45.288;12.038;2024-02-04T21:02:54;1023.4748015282754;;;5.177734375;100
61740;BME280;47645;45.288;12.038;2024-02-04T21:12:57;1023.4821812002256;;;5.1318359375;100
61740;BME280;47645;45.288;12.038;2024-02-04T21:22:56;1023.3049954662188;;;5.1267578125;100
61740;BME280;47645;45.288;12.038;2024-02-04T21:32:56;1023.4188563737208;;;4.9380859375;100
61740;BME280;47645;45.288;12.038;2024-02-04T21:42:57;1023.5619618625798;;;4.759765625;100
61740;BME280;47645;45.288;12.038;2024-02-04T21:52:58;1023.5088323434675;;;4.8005859375;100
61740;BME280;47645;45.288;12.038;2024-02-04T22:02:58;1023.6061481930959;;;4.8107421875;100
61740;BME280;47645;45.288;12.038;2024-02-04T22:12:58;1023.5569355171716;;;4.8310546875;100
61740;BME280;47645;45.288;12.038;2024-02-04T22:22:59;1023.5299995326376;;;4.683203125;100
61740;BME280;47645;45.288;12.038;2024-02-04T22:32:59;1023.4526151079702;;;4.775;100
61740;BME280;47645;45.288;12.038;2024-02-04T22:42:59;1023.4245952182506;;;4.6986328125;100
61740;BME280;47645;45.288;12.038;2024-02-04T22:53:02;1023.399684562654;;;4.4998046875;100
61740;BME280;47645;45.288;12.038;2024-02-04T23:03:00;1023.3645128592635;;;4.535546875;100
61740;BME280;47645;45.288;12.038;2024-02-04T23:13:01;1023.6320108786811;;;4.1482421875;100
61740;BME280;47645;45.288;12.038;2024-02-04T23:23:01;1023.4637607997379;;;4.0513671875;100
61740;BME280;47645;45.288;12.038;2024-02-04T23:33:02;1023.4790658232473;;;4.0310546875;100
61740;BME280;47645;45.288;12.038;2024-02-04T23:43:02;1023.3577734606649;;;4.234765625;100
61740;BME280;47645;45.288;12.038;2024-02-04T23:53:03;1023.3030630806861;;;4.4080078125;100
